Time;durP1;ratioP1;P1;durP2;ratioP2;P2;SDS_P1;SDS_P2;PMS_P1;PMS_P2;Temp;Humidity;BMP_temperature;BMP_pressure;BME280_temperature;BME280_humidity;BME280_pressure;Samples;Min_cycle;Max_cycle;Signal;HPM_P1;HPM_P2
2023/08/27 00:01:57;;;;;;;;;;;;;;;21.79;50.82;100721.81;5028725;28;4172;-62
2023/08/27 00:04:24;;;;;;;;;;;;;;;21.77;50.72;100730.38;5026155;28;4030;-62
2023/08/27 00:06:51;;;;;;;;;;;;;;;21.74;50.68;100718.78;5027601;28;4079;-62
2023/08/27 00:09:17;;;;;;;;;;;;;;;21.70;50.66;100718.63;5027370;28;4080;-62
2023/08/27 00:11:44;;;;;;;;;;;;;;;21.72;50.60;100704.28;5041171;28;4054;-62
2023/08/27 00:14:10;;;;;;;;;;;;;;;21.65;50.86;100704.72;5025020;28;4135;-62
2023/08/27 00:16:37;;;;;;;;;;;;;;;21.66;50.78;100688.91;5028768;28;4074;-62
2023/08/27 00:19:03;;;;;;;;;;;;;;;21.65;50.58;100687.44;5029055;28;4130;-62
2023/08/27 00:21:30;;;;;;;;;;;;;;;21.64;50.64;100680.19;5028793;28;4224;-62
2023/08/27 00:23:56;;;;;;;;;;;;;;;21.63;50.72;100670.81;5025850;28;4401;-62
2023/08/27 00:26:23;;;;;;;;;;;;;;;21.58;50.85;100674.94;5029891;28;4106;-62
2023/08/27 00:28:49;;;;;;;;;;;;;;;21.56;50.62;100686.38;5027621;28;4048;-62
2023/08/27 00:31:16;;;;;;;;;;;;;;;21.60;50.56;100703.06;5022093;28;4071;-62
2023/08/27 00:33:43;;;;;;;;;;;;;;;21.60;50.59;100706.72;5040709;28;4017;-62
2023/08/27 00:36:09;;;;;;;;;;;;;;;21.59;50.76;100702.34;5024383;28;4192;-62
2023/08/27 00:38:35;;;;;;;;;;;;;;;21.58;50.61;100695.09;5022577;28;4215;-62
2023/08/27 00:41:02;;;;;;;;;;;;;;;21.56;50.69;100691.41;5043190;28;4487;-62
2023/08/27 00:43:29;;;;;;;;;;;;;;;21.52;50.50;100697.75;5031392;28;4174;-67
2023/08/27 00:45:56;;;;;;;;;;;;;;;21.48;50.53;100700.47;5041492;28;4551;-68
2023/08/27 00:48:22;;;;;;;;;;;;;;;21.53;50.97;100699.22;5040102;28;4290;-68
2023/08/27 00:50:49;;;;;;;;;;;;;;;21.54;50.79;100694.94;5034714;28;3973;-68
2023/08/27 00:53:15;;;;;;;;;;;;;;;21.52;50.99;100694.84;5040717;28;4275;-68
2023/08/27 00:55:41;;;;;;;;;;;;;;;21.51;50.70;100687.63;5023207;28;4042;-68
2023/08/27 00:58:08;;;;;;;;;;;;;;;21.48;50.71;100680.28;5026090;28;4292;-68
2023/08/27 01:00:34;;;;;;;;;;;;;;;21.47;50.72;100690.34;5024976;28;4047;-68
2023/08/27 01:03:01;;;;;;;;;;;;;;;21.44;50.78;100685.88;5038562;28;5046;-68
2023/08/27 01:05:28;;;;;;;;;;;;;;;21.44;50.54;100691.66;5029179;28;4367;-68
2023/08/27 01:07:55;;;;;;;;;;;;;;;21.44;50.87;100686.66;5032176;28;4168;-68
2023/08/27 01:10:33;;;;;;;;;;;;;;;21.38;50.70;100671.25;5026081;28;4017;-68
2023/08/27 01:13:03;;;;;;;;;;;;;;;21.36;50.76;100674.03;5042143;28;4241;-68
2023/08/27 01:15:30;;;;;;;;;;;;;;;21.33;50.74;100688.34;5024723;28;4194;-68
2023/08/27 01:17:57;;;;;;;;;;;;;;;21.36;50.89;100679.78;5023820;28;4112;-68
2023/08/27 01:20:24;;;;;;;;;;;;;;;21.36;50.93;100685.56;5045056;28;5591;-68
2023/08/27 01:22:50;;;;;;;;;;;;;;;21.37;50.72;100684.16;5020981;28;4190;-68
2023/08/27 01:25:18;;;;;;;;;;;;;;;21.33;50.81;100676.84;5028981;28;4178;-68
2023/08/27 01:27:48;;;;;;;;;;;;;;;21.30;50.84;100672.41;5041020;28;3969;-68
2023/08/27 01:30:16;;;;;;;;;;;;;;;21.28;50.89;100669.44;5018888;28;4297;-68
2023/08/27 01:32:47;;;;;;;;;;;;;;;21.26;50.79;100666.47;5031752;28;3994;-68
2023/08/27 01:35:13;;;;;;;;;;;;;;;21.26;50.57;100678.00;5037058;28;4578;-68
2023/08/27 01:37:40;;;;;;;;;;;;;;;21.26;50.80;100689.50;5036846;28;4146;-68
2023/08/27 01:40:07;;;;;;;;;;;;;;;21.30;50.88;100704.09;5040601;28;4158;-68
2023/08/27 01:42:35;;;;;;;;;;;;;;;21.30;50.85;100712.72;5032920;28;4298;-68
2023/08/27 01:45:03;;;;;;;;;;;;;;;21.27;51.13;100688.09;5029949;28;4045;-68
2023/08/27 01:47:30;;;;;;;;;;;;;;;21.25;51.28;100670.00;5030446;28;4288;-69
2023/08/27 01:49:57;;;;;;;;;;;;;;;21.22;51.02;100651.19;5030528;28;4161;-69
2023/08/27 01:52:23;;;;;;;;;;;;;;;21.23;51.16;100673.53;5024133;28;4286;-68
2023/08/27 01:54:50;;;;;;;;;;;;;;;21.21;51.33;100682.13;5025629;28;4193;-68
2023/08/27 01:57:16;;;;;;;;;;;;;;;21.20;51.08;100669.09;5032727;28;4158;-68
2023/08/27 01:59:44;;;;;;;;;;;;;;;21.25;50.94;100676.50;5029891;28;4012;-68
2023/08/27 02:02:11;;;;;;;;;;;;;;;21.19;51.30;100661.88;5040756;28;4162;-69
2023/08/27 02:04:37;;;;;;;;;;;;;;;21.20;51.24;100631.66;5026719;28;4194;-68
2023/08/27 02:07:04;;;;;;;;;;;;;;;21.19;51.06;100633.09;5025816;28;3901;-67
2023/08/27 02:09:30;;;;;;;;;;;;;;;21.16;51.04;100651.66;5028897;28;4061;-68
2023/08/27 02:11:57;;;;;;;;;;;;;;;21.13;51.26;100653.72;5046450;28;4156;-69
2023/08/27 02:14:24;;;;;;;;;;;;;;;21.11;51.38;100656.53;5041190;28;5279;-69
2023/08/27 02:16:50;;;;;;;;;;;;;;;21.11;51.22;100655.78;5047107;28;4179;-68
2023/08/27 02:19:16;;;;;;;;;;;;;;;21.10;51.30;100625.53;5042323;28;4020;-68
2023/08/27 02:21:43;;;;;;;;;;;;;;;21.05;51.09;100624.63;5026344;28;4427;-67
2023/08/27 02:24:11;;;;;;;;;;;;;;;21.02;51.37;100636.69;5040824;28;5304;-68
2023/08/27 02:26:38;;;;;;;;;;;;;;;21.09;51.54;100642.03;5043853;28;4287;-69
2023/08/27 02:29:04;;;;;;;;;;;;;;;21.11;51.79;100656.53;5049331;28;4285;-68
2023/08/27 02:31:31;;;;;;;;;;;;;;;21.09;51.71;100675.84;5034429;28;4122;-69
2023/08/27 02:37:57;;;;;;;;;;;;;;;21.09;52.16;100661.47;5015067;28;4065;-68
2023/08/27 02:40:24;;;;;;;;;;;;;;;21.08;52.17;100668.63;5023463;28;4168;-67
2023/08/27 02:42:50;;;;;;;;;;;;;;;21.08;52.40;100662.88;5028160;28;4204;-68
2023/08/27 02:45:18;;;;;;;;;;;;;;;21.06;52.40;100648.38;5030384;28;4205;-68
2023/08/27 02:47:44;;;;;;;;;;;;;;;21.05;52.44;100641.13;5028796;28;4173;-68
2023/08/27 02:50:11;;;;;;;;;;;;;;;21.00;52.52;100628.72;5025813;28;4214;-68
2023/08/27 02:52:37;;;;;;;;;;;;;;;21.03;52.27;100638.94;5026895;28;4233;-68
2023/08/27 02:55:04;;;;;;;;;;;;;;;21.05;52.21;100626.75;5026388;28;4300;-68
2023/08/27 02:57:30;;;;;;;;;;;;;;;21.05;52.30;100632.50;5046915;28;5001;-68
2023/08/27 02:59:57;;;;;;;;;;;;;;;21.03;52.50;100650.44;5049684;28;4167;-68
2023/08/27 03:02:24;;;;;;;;;;;;;;;21.05;52.39;100661.28;5046793;28;4254;-68
2023/08/27 03:04:51;;;;;;;;;;;;;;;21.07;52.28;100667.13;5040985;28;4086;-69
2023/08/27 03:07:18;;;;;;;;;;;;;;;21.03;52.59;100684.25;5013754;28;4244;-69
2023/08/27 03:09:44;;;;;;;;;;;;;;;21.06;52.70;100671.41;5043439;28;4910;-68
2023/08/27 03:12:11;;;;;;;;;;;;;;;21.01;52.74;100646.75;5025161;28;5193;-68
2023/08/27 03:14:37;;;;;;;;;;;;;;;20.99;52.74;100638.03;5022399;28;4122;-68
2023/08/27 03:17:04;;;;;;;;;;;;;;;20.96;52.77;100645.09;5028580;28;4215;-68
2023/08/27 03:19:30;;;;;;;;;;;;;;;20.94;52.42;100631.38;5045433;28;4122;-68
2023/08/27 03:21:57;;;;;;;;;;;;;;;20.96;52.52;100642.97;5026196;28;4196;-68
2023/08/27 03:24:23;;;;;;;;;;;;;;;20.97;52.41;100650.19;5024778;28;5637;-68
2023/08/27 03:26:49;;;;;;;;;;;;;;;20.99;52.27;100640.91;5041920;28;4125;-70
2023/08/27 03:29:16;;;;;;;;;;;;;;;21.00;52.32;100645.25;5022032;28;3992;-68
2023/08/27 03:31:43;;;;;;;;;;;;;;;20.92;52.53;100643.53;5042769;28;4169;-68
2023/08/27 03:34:09;;;;;;;;;;;;;;;20.92;52.53;100646.41;5024521;28;4171;-68
2023/08/27 03:36:36;;;;;;;;;;;;;;;20.89;52.34;100641.22;5046619;28;4170;-68
2023/08/27 03:39:02;;;;;;;;;;;;;;;20.88;52.43;100631.84;5026390;28;4134;-68
2023/08/27 03:41:28;;;;;;;;;;;;;;;20.88;52.36;100637.59;5045770;28;4143;-69
2023/08/27 03:43:55;;;;;;;;;;;;;;;20.91;52.43;100647.81;5025288;28;4065;-69
2023/08/27 03:46:21;;;;;;;;;;;;;;;20.89;52.70;100630.47;5045940;28;5181;-68
2023/08/27 03:48:48;;;;;;;;;;;;;;;20.86;52.70;100602.25;5028468;28;4085;-68
2023/08/27 03:51:14;;;;;;;;;;;;;;;20.84;52.58;100588.50;5045749;28;4024;-68
2023/08/27 03:53:41;;;;;;;;;;;;;;;20.79;52.66;100595.50;5026388;28;4027;-69
2023/08/27 03:56:08;;;;;;;;;;;;;;;20.80;52.66;100588.38;5044928;28;4233;-68
2023/08/27 03:58:34;;;;;;;;;;;;;;;20.78;52.96;100579.66;5029468;28;4468;-68
2023/08/27 04:01:00;;;;;;;;;;;;;;;20.78;52.92;100578.91;5040052;28;4286;-68
2023/08/27 04:03:28;;;;;;;;;;;;;;;20.80;53.03;100573.97;5024553;28;4233;-68
2023/08/27 04:05:54;;;;;;;;;;;;;;;20.81;52.72;100594.84;5043223;28;4169;-68
2023/08/27 04:08:21;;;;;;;;;;;;;;;20.82;53.19;100605.72;5029218;28;4135;-68
2023/08/27 04:10:50;;;;;;;;;;;;;;;20.80;53.20;100605.63;5023173;28;4139;-68
2023/08/27 04:13:18;;;;;;;;;;;;;;;20.83;53.45;100604.31;5029637;28;4501;-68
2023/08/27 04:16:03;;;;;;;;;;;;;;;20.82;53.52;100602.84;5040048;28;4161;-68
2023/08/27 04:18:30;;;;;;;;;;;;;;;20.80;53.41;100611.41;5028763;28;4309;-69
2023/08/27 04:20:56;;;;;;;;;;;;;;;20.80;53.23;100602.00;5023788;28;4345;-68
2023/08/27 04:23:24;;;;;;;;;;;;;;;20.84;53.15;100608.66;5030369;28;4251;-68
2023/08/27 04:25:50;;;;;;;;;;;;;;;20.79;53.38;100598.38;5044296;28;4301;-68
2023/08/27 04:28:17;;;;;;;;;;;;;;;20.82;53.34;100608.59;5025123;28;4133;-68
2023/08/27 04:30:43;;;;;;;;;;;;;;;20.80;53.36;100599.13;5030868;28;3968;-68
2023/08/27 04:33:10;;;;;;;;;;;;;;;20.77;53.33;100601.19;5021666;28;4152;-68
2023/08/27 04:35:38;;;;;;;;;;;;;;;20.75;53.28;100609.72;5025196;28;4293;-68
2023/08/27 04:38:05;;;;;;;;;;;;;;;20.75;53.28;100620.50;5041174;28;4221;-68
2023/08/27 04:40:31;;;;;;;;;;;;;;;20.80;53.51;100633.66;5028618;28;4013;-68
2023/08/27 04:42:58;;;;;;;;;;;;;;;20.78;53.54;100647.97;5025166;28;4146;-68
2023/08/27 04:45:24;;;;;;;;;;;;;;;20.74;53.52;100637.03;5039557;28;5701;-66
2023/08/27 04:47:51;;;;;;;;;;;;;;;20.75;53.76;100638.50;5022151;28;4059;-68
2023/08/27 04:50:18;;;;;;;;;;;;;;;20.76;53.86;100631.38;5025435;28;4212;-68
2023/08/27 04:52:44;;;;;;;;;;;;;;;20.76;54.04;100622.72;5039689;28;4185;-67
2023/08/27 04:55:11;;;;;;;;;;;;;;;20.73;53.79;100632.69;5023809;28;4261;-67
2023/08/27 04:57:37;;;;;;;;;;;;;;;20.76;54.17;100628.50;5026321;28;4125;-67
2023/08/27 05:00:04;;;;;;;;;;;;;;;20.76;54.06;100622.72;5022745;28;4170;-67
2023/08/27 05:02:31;;;;;;;;;;;;;;;20.76;54.15;100622.72;5028474;28;4139;-67
2023/08/27 05:04:58;;;;;;;;;;;;;;;20.73;54.25;100612.53;5023679;28;4638;-65
2023/08/27 05:07:24;;;;;;;;;;;;;;;20.75;54.34;100623.38;5028729;28;4212;-67
2023/08/27 05:09:52;;;;;;;;;;;;;;;20.73;54.38;100635.56;5043484;28;4177;-67
2023/08/27 05:12:18;;;;;;;;;;;;;;;20.73;54.65;100640.56;5042075;28;4030;-68
2023/08/27 05:14:44;;;;;;;;;;;;;;;20.76;54.40;100640.00;5032173;28;4221;-68
2023/08/27 05:17:11;;;;;;;;;;;;;;;20.75;54.63;100632.75;5044122;28;4148;-68
2023/08/27 05:19:37;;;;;;;;;;;;;;;20.74;54.78;100611.13;5047353;28;4471;-68
2023/08/27 05:22:05;;;;;;;;;;;;;;;20.74;54.88;100608.25;5044618;28;4297;-67
2023/08/27 05:24:31;;;;;;;;;;;;;;;20.72;55.30;100593.78;5029293;28;4108;-67
2023/08/27 05:26:58;;;;;;;;;;;;;;;20.75;55.20;100609.00;5044333;28;4115;-67
2023/08/27 05:29:24;;;;;;;;;;;;;;;20.74;55.40;100622.66;5045388;28;4122;-68
2023/08/27 05:31:51;;;;;;;;;;;;;;;20.74;55.56;100628.41;5027495;28;4159;-68
2023/08/27 05:34:17;;;;;;;;;;;;;;;20.80;55.69;100642.28;5029809;28;4129;-67
2023/08/27 05:36:45;;;;;;;;;;;;;;;20.78;55.84;100648.72;5046295;28;4238;-67
2023/08/27 05:39:13;;;;;;;;;;;;;;;20.77;56.22;100646.47;5030029;28;4048;-67
2023/08/27 05:41:41;;;;;;;;;;;;;;;20.82;56.07;100636.63;5029084;28;4409;-68
2023/08/27 05:44:08;;;;;;;;;;;;;;;20.82;56.02;100627.97;5042521;28;4076;-68
2023/08/27 05:46:35;;;;;;;;;;;;;;;20.71;56.94;100626.84;5023748;28;3988;-67
2023/08/27 05:49:01;;;;;;;;;;;;;;;20.59;57.71;100603.31;5039311;28;4153;-67
2023/08/27 05:51:29;;;;;;;;;;;;;;;20.46;58.32;100608.53;5039415;28;4186;-68
2023/08/27 05:53:56;;;;;;;;;;;;;;;20.49;58.39;100612.97;5022347;28;4264;-68
2023/08/27 05:56:25;;;;;;;;;;;;;;;20.49;58.61;100623.75;5043852;28;4319;-68
2023/08/27 05:58:52;;;;;;;;;;;;;;;20.47;58.97;100604.25;5025157;28;4057;-68
2023/08/27 06:01:19;;;;;;;;;;;;;;;20.45;58.97;100589.78;5024127;28;4125;-68
2023/08/27 06:03:45;;;;;;;;;;;;;;;20.53;59.05;100592.28;5042889;28;4201;-68
2023/08/27 06:06:12;;;;;;;;;;;;;;;20.49;59.73;100598.59;5037675;28;5214;-67
2023/08/27 06:08:38;;;;;;;;;;;;;;;20.51;60.07;100597.94;5024006;28;4182;-67
2023/08/27 06:11:05;;;;;;;;;;;;;;;20.46;60.32;100591.28;5039732;28;4138;-67
2023/08/27 06:13:31;;;;;;;;;;;;;;;20.53;60.39;100598.03;5041239;28;4115;-68
2023/08/27 06:15:57;;;;;;;;;;;;;;;20.55;60.51;100597.34;5028882;28;4029;-68
2023/08/27 06:18:24;;;;;;;;;;;;;;;20.56;60.58;100596.72;5027150;28;4157;-68
2023/08/27 06:20:51;;;;;;;;;;;;;;;20.59;60.94;100603.31;5025228;28;4318;-68
2023/08/27 06:23:18;;;;;;;;;;;;;;;20.61;61.41;100600.50;5026009;28;4596;-67
2023/08/27 06:25:45;;;;;;;;;;;;;;;20.63;61.40;100615.72;5041914;28;4060;-68
2023/08/27 06:28:12;;;;;;;;;;;;;;;20.59;61.75;100618.44;5024437;28;3901;-68
2023/08/27 06:30:41;;;;;;;;;;;;;;;20.59;62.04;100620.56;5043374;28;4058;-68
2023/08/27 06:33:09;;;;;;;;;;;;;;;20.63;62.42;100612.13;5038625;28;4202;-68
2023/08/27 06:35:36;;;;;;;;;;;;;;;20.70;62.38;100614.56;5023680;28;4094;-68
2023/08/27 06:38:03;;;;;;;;;;;;;;;20.68;62.86;100608.00;5039290;28;4081;-68
2023/08/27 06:40:30;;;;;;;;;;;;;;;20.74;63.13;100616.88;5025354;28;3973;-68
2023/08/27 06:42:56;;;;;;;;;;;;;;;20.70;63.43;100613.84;5044026;28;3938;-67
2023/08/27 06:45:23;;;;;;;;;;;;;;;20.75;64.02;100615.47;5027439;28;4121;-68
2023/08/27 06:47:49;;;;;;;;;;;;;;;20.87;63.49;100610.25;5030330;28;4142;-60
2023/08/27 06:50:16;;;;;;;;;;;;;;;20.88;63.01;100614.59;5026666;28;4232;-60
2023/08/27 06:52:43;;;;;;;;;;;;;;;20.90;62.84;100608.91;5024113;28;4052;-60
2023/08/27 06:55:10;;;;;;;;;;;;;;;20.90;62.64;100620.44;5030099;28;4044;-60
2023/08/27 06:57:37;;;;;;;;;;;;;;;20.97;62.03;100623.56;5024507;28;4187;-60
2023/08/27 07:00:07;;;;;;;;;;;;;;;20.87;62.23;100627.50;5026480;28;4150;-60
2023/08/27 07:02:34;;;;;;;;;;;;;;;20.89;62.07;100627.59;5026918;28;4038;-60
2023/08/27 07:05:01;;;;;;;;;;;;;;;20.89;62.23;100624.72;5044837;28;4189;-60
2023/08/27 07:07:28;;;;;;;;;;;;;;;20.93;62.24;100607.59;5043115;28;4193;-60
2023/08/27 07:09:54;;;;;;;;;;;;;;;20.95;61.83;100609.06;5026669;28;4036;-60
2023/08/27 07:12:21;;;;;;;;;;;;;;;21.01;61.57;100618.69;5026149;28;4936;-61
2023/08/27 07:14:49;;;;;;;;;;;;;;;20.97;61.96;100617.78;5021631;28;4012;-60
2023/08/27 07:17:15;;;;;;;;;;;;;;;20.95;61.72;100623.47;5030322;28;4142;-60
2023/08/27 07:19:42;;;;;;;;;;;;;;;20.98;61.10;100619.25;5033339;28;4255;-60
2023/08/27 07:22:08;;;;;;;;;;;;;;;20.95;61.55;100632.84;5022885;28;4318;-61
2023/08/27 07:24:35;;;;;;;;;;;;;;;20.98;61.74;100619.25;5043035;28;3957;-61
2023/08/27 07:27:01;;;;;;;;;;;;;;;20.98;61.95;100614.28;5046499;28;4206;-61
2023/08/27 07:29:28;;;;;;;;;;;;;;;21.00;61.71;100616.47;5026329;28;4160;-61
2023/08/27 07:31:54;;;;;;;;;;;;;;;21.06;61.79;100608.81;5025913;28;4191;-61
2023/08/27 07:34:21;;;;;;;;;;;;;;;21.02;61.47;100602.16;5027725;28;4444;-61
2023/08/27 07:36:48;;;;;;;;;;;;;;;21.08;61.98;100593.78;5024342;28;4135;-61
2023/08/27 07:39:14;;;;;;;;;;;;;;;20.49;64.29;100601.47;5040884;28;4294;-75
2023/08/27 07:41:41;;;;;;;;;;;;;;;19.70;68.14;100592.28;5023529;28;4144;-77
2023/08/27 07:44:07;;;;;;;;;;;;;;;19.57;68.51;100602.47;5022607;28;4053;-75
2023/08/27 07:46:33;;;;;;;;;;;;;;;19.61;69.82;100612.03;5041913;28;4038;-75
2023/08/27 07:49:00;;;;;;;;;;;;;;;19.88;67.15;100621.84;5044967;28;4110;-76
2023/08/27 07:51:27;;;;;;;;;;;;;;;19.86;67.52;100601.66;5043514;28;3923;-75
2023/08/27 07:53:53;;;;;;;;;;;;;;;19.60;68.60;100587.53;5042127;28;4235;-75
2023/08/27 07:56:20;;;;;;;;;;;;;;;19.83;67.48;100586.44;5023224;28;4205;-75
2023/08/27 07:58:46;;;;;;;;;;;;;;;19.64;68.37;100590.59;5041735;28;4151;-75
2023/08/27 08:01:13;;;;;;;;;;;;;;;20.01;67.08;100606.63;5022552;28;4128;-75
2023/08/27 08:03:39;;;;;;;;;;;;;;;20.22;65.41;100607.50;5043351;28;4214;-74
2023/08/27 08:06:06;;;;;;;;;;;;;;;20.19;63.38;100605.94;5030585;28;4157;-75
2023/08/27 08:08:33;;;;;;;;;;;;;;;20.42;63.20;100608.38;5042392;28;4253;-73
2023/08/27 08:10:59;;;;;;;;;;;;;;;20.95;62.92;100598.31;5023633;28;4179;-76
2023/08/27 08:13:26;;;;;;;;;;;;;;;21.08;63.09;100603.13;5032103;28;4201;-73
2023/08/27 08:15:52;;;;;;;;;;;;;;;21.16;62.06;100599.09;5024606;28;3943;-73
2023/08/27 08:18:19;;;;;;;;;;;;;;;20.89;60.58;100601.69;5028391;28;4029;-72
2023/08/27 08:20:45;;;;;;;;;;;;;;;21.11;60.85;100598.19;5029097;28;3973;-72
2023/08/27 08:23:12;;;;;;;;;;;;;;;20.95;60.58;100604.06;5043323;28;4032;-72
2023/08/27 08:25:41;;;;;;;;;;;;;;;21.00;61.17;100605.69;5027794;28;3992;-72
2023/08/27 08:28:08;;;;;;;;;;;;;;;20.89;60.44;100598.81;5022710;28;4421;-74
2023/08/27 08:30:34;;;;;;;;;;;;;;;20.96;60.58;100584.63;5028340;28;4119;-72
2023/08/27 08:33:00;;;;;;;;;;;;;;;20.95;59.67;100583.19;5025435;28;4277;-73
2023/08/27 08:35:27;;;;;;;;;;;;;;;20.92;60.62;100583.09;5025424;28;4212;-73
2023/08/27 08:37:53;;;;;;;;;;;;;;;20.76;60.62;100579.56;5025362;28;4009;-73
2023/08/27 08:40:20;;;;;;;;;;;;;;;20.64;61.29;100570.44;5025397;28;4061;-71
2023/08/27 08:42:50;;;;;;;;;;;;;;;20.48;63.75;100547.50;5027258;28;4132;-72
2023/08/27 08:45:22;;;;;;;;;;;;;;;20.55;61.32;100529.09;5029114;28;4116;-72
2023/08/27 08:47:48;;;;;;;;;;;;;;;20.60;60.80;100558.78;5027185;28;4192;-71
2023/08/27 08:50:15;;;;;;;;;;;;;;;20.60;60.02;100576.03;5043045;28;4129;-72
2023/08/27 08:52:42;;;;;;;;;;;;;;;20.64;59.47;100588.44;5041494;28;4044;-72
2023/08/27 08:55:09;;;;;;;;;;;;;;;20.59;60.83;100581.06;5027545;28;4193;-72
2023/08/27 08:57:40;;;;;;;;;;;;;;;20.58;59.18;100576.69;5028220;28;4028;-72
2023/08/27 09:00:08;;;;;;;;;;;;;;;20.70;60.19;100556.28;5028214;28;4145;-72
2023/08/27 09:02:35;;;;;;;;;;;;;;;20.75;60.13;100552.19;5031833;28;4286;-72
2023/08/27 09:05:01;;;;;;;;;;;;;;;20.79;61.61;100545.84;5040312;28;4313;-72
2023/08/27 09:07:28;;;;;;;;;;;;;;;20.94;60.58;100547.91;5025188;28;4033;-71
2023/08/27 09:09:54;;;;;;;;;;;;;;;21.01;60.14;100543.13;5026463;28;4138;-72
2023/08/27 09:12:21;;;;;;;;;;;;;;;21.03;60.61;100543.19;5029601;28;4147;-72
2023/08/27 09:14:47;;;;;;;;;;;;;;;21.13;59.88;100549.34;5028469;28;3975;-72
2023/08/27 09:17:16;;;;;;;;;;;;;;;21.05;59.53;100540.38;5028918;28;4666;-72
2023/08/27 09:19:43;;;;;;;;;;;;;;;21.27;59.32;100535.47;5021661;28;4043;-74
2023/08/27 09:22:10;;;;;;;;;;;;;;;21.45;57.38;100526.06;5021589;28;4169;-72
2023/08/27 09:24:36;;;;;;;;;;;;;;;21.23;58.21;100515.16;5027319;28;4629;-73
2023/08/27 09:27:03;;;;;;;;;;;;;;;21.10;58.74;100513.25;5022384;28;4003;-74
2023/08/27 09:29:29;;;;;;;;;;;;;;;21.21;58.59;100509.34;5025989;28;4319;-73
2023/08/27 09:31:56;;;;;;;;;;;;;;;21.19;58.47;100522.91;5023109;28;4032;-73
2023/08/27 09:34:22;;;;;;;;;;;;;;;21.29;57.55;100529.78;5022553;28;3954;-72
2023/08/27 09:36:49;;;;;;;;;;;;;;;21.26;58.30;100539.03;5021808;28;4473;-72
2023/08/27 09:39:15;;;;;;;;;;;;;;;21.22;57.90;100538.88;5027023;28;4333;-72
2023/08/27 09:41:42;;;;;;;;;;;;;;;21.27;58.52;100544.09;5023993;28;4178;-72
2023/08/27 09:44:08;;;;;;;;;;;;;;;21.12;58.76;100531.31;5027732;28;4156;-72
2023/08/27 09:46:36;;;;;;;;;;;;;;;21.21;58.92;100525.88;5020836;28;4191;-72
2023/08/27 09:49:04;;;;;;;;;;;;;;;21.40;58.54;100525.19;5026061;28;4716;-72
2023/08/27 09:51:31;;;;;;;;;;;;;;;21.45;58.26;100520.31;5022626;28;4163;-72
2023/08/27 09:53:58;;;;;;;;;;;;;;;21.59;58.17;100523.69;5030799;28;4146;-72
2023/08/27 09:56:24;;;;;;;;;;;;;;;21.64;56.68;100516.66;5030002;28;4172;-72
2023/08/27 09:58:54;;;;;;;;;;;;;;;21.65;58.18;100520.31;5027547;28;4179;-72
2023/08/27 10:01:21;;;;;;;;;;;;;;;21.53;57.36;100532.88;5030577;28;3969;-72
2023/08/27 10:03:47;;;;;;;;;;;;;;;21.52;59.01;100516.97;5027969;28;5303;-72
2023/08/27 10:06:14;;;;;;;;;;;;;;;21.65;56.96;100503.75;5029738;28;6056;-72
2023/08/27 10:08:51;;;;;;;;;;;;;;;21.75;56.40;100506.97;5029722;28;3920;-73
2023/08/27 10:11:17;;;;;;;;;;;;;;;21.73;57.67;100509.06;5044000;28;4170;-72
2023/08/27 10:13:44;;;;;;;;;;;;;;;21.80;55.49;100513.63;5042621;28;4137;-72
2023/08/27 10:16:11;;;;;;;;;;;;;;;21.78;56.21;100509.94;5025547;28;4672;-72
2023/08/27 10:18:38;;;;;;;;;;;;;;;21.59;57.11;100517.19;5030145;28;4134;-72
2023/08/27 10:21:04;;;;;;;;;;;;;;;21.53;57.58;100521.34;5022488;28;4273;-72
2023/08/27 10:23:31;;;;;;;;;;;;;;;21.65;57.01;100515.28;5045961;28;4134;-72
2023/08/27 10:25:58;;;;;;;;;;;;;;;21.53;56.46;100509.06;5027394;28;4422;-72
2023/08/27 10:28:25;;;;;;;;;;;;;;;21.49;56.12;100521.19;5038273;28;4256;-72
2023/08/27 10:30:52;;;;;;;;;;;;;;;21.39;56.28;100517.91;5029950;28;4221;-72
2023/08/27 10:33:18;;;;;;;;;;;;;;;21.54;56.10;100525.69;5029652;28;4033;-72
2023/08/27 10:35:45;;;;;;;;;;;;;;;21.55;55.87;100523.53;5026322;28;3932;-71
2023/08/27 10:38:11;;;;;;;;;;;;;;;21.61;54.95;100529.53;5027802;28;4248;-72
2023/08/27 10:40:37;;;;;;;;;;;;;;;21.60;55.95;100522.31;5035281;28;4485;-72
2023/08/27 10:43:08;;;;;;;;;;;;;;;21.58;54.87;100504.19;5028117;28;4186;-72
2023/08/27 10:45:38;;;;;;;;;;;;;;;21.64;55.71;100508.03;5024269;28;4305;-74
2023/08/27 10:48:10;;;;;;;;;;;;;;;21.78;55.67;100515.69;5022556;28;4134;-71
2023/08/27 10:50:44;;;;;;;;;;;;;;;21.71;55.51;100498.19;5030255;28;4194;-71
2023/08/27 10:53:11;;;;;;;;;;;;;;;21.65;55.86;100498.00;5028629;28;4165;-71
2023/08/27 10:55:37;;;;;;;;;;;;;;;21.63;54.69;100495.03;5026921;28;4038;-71
2023/08/27 10:58:14;;;;;;;;;;;;;;;21.61;56.38;100486.31;5030881;28;4036;-71
2023/08/27 11:00:56;;;;;;;;;;;;;;;21.69;54.90;100486.63;5031208;28;4038;-71
2023/08/27 11:03:23;;;;;;;;;;;;;;;21.67;56.55;100494.41;5028601;28;4565;-71
2023/08/27 11:06:08;;;;;;;;;;;;;;;21.60;54.82;100484.84;5026706;28;4000;-71
2023/08/27 11:08:34;;;;;;;;;;;;;;;21.52;55.47;100484.56;5024059;28;4536;-71
2023/08/27 11:11:13;;;;;;;;;;;;;;;21.56;54.95;100492.63;5023885;28;4260;-72
2023/08/27 11:13:44;;;;;;;;;;;;;;;21.68;54.74;100496.66;5027134;28;4330;-73
2023/08/27 11:16:11;;;;;;;;;;;;;;;21.58;54.45;100487.66;5025673;28;4137;-73
2023/08/27 11:18:47;;;;;;;;;;;;;;;21.55;53.58;100494.72;5026919;28;4390;-71
2023/08/27 11:21:20;;;;;;;;;;;;;;;21.45;53.73;100500.13;5029970;28;4049;-71
2023/08/27 11:24:11;;;;;;;;;;;;;;;21.41;53.83;100497.09;5026081;28;4195;-70
2023/08/27 11:26:41;;;;;;;;;;;;;;;21.28;55.26;100470.72;5026513;28;3975;-71
2023/08/27 11:29:07;;;;;;;;;;;;;;;21.36;54.70;100455.16;5027655;28;4150;-71
2023/08/27 11:31:34;;;;;;;;;;;;;;;21.28;55.05;100449.81;5030745;28;4060;-71
2023/08/27 11:34:00;;;;;;;;;;;;;;;21.23;55.37;100466.19;5030409;28;4457;-71
2023/08/27 11:36:27;;;;;;;;;;;;;;;21.26;55.70;100464.88;5039089;28;4073;-71
2023/08/27 11:39:00;;;;;;;;;;;;;;;21.26;54.43;100470.66;5027841;28;4184;-71
2023/08/27 11:41:32;;;;;;;;;;;;;;;21.28;53.28;100473.59;5027028;28;4220;-71
2023/08/27 11:43:59;;;;;;;;;;;;;;;21.15;54.99;100462.31;5043320;28;4143;-72
2023/08/27 11:46:25;;;;;;;;;;;;;;;21.16;55.93;100460.91;5023233;28;4151;-71
2023/08/27 11:48:52;;;;;;;;;;;;;;;21.22;53.99;100458.25;5042709;28;4004;-71
2023/08/27 11:51:18;;;;;;;;;;;;;;;21.22;55.04;100452.50;5025851;28;4361;-71
2023/08/27 11:53:45;;;;;;;;;;;;;;;21.19;55.39;100445.91;5026760;28;4341;-71
2023/08/27 11:56:11;;;;;;;;;;;;;;;21.24;56.25;100444.66;5024319;28;4149;-71
2023/08/27 11:58:39;;;;;;;;;;;;;;;21.30;54.38;100450.66;5024817;28;4224;-71
2023/08/27 12:01:06;;;;;;;;;;;;;;;21.38;53.77;100458.81;5037362;28;5224;-76
2023/08/27 12:03:33;;;;;;;;;;;;;;;21.45;54.28;100459.81;5041148;28;4104;-76
2023/08/27 12:05:59;;;;;;;;;;;;;;;21.47;54.92;100465.66;5028026;28;4114;-76
2023/08/27 12:08:26;;;;;;;;;;;;;;;21.44;54.35;100472.72;5027472;28;4314;-72
2023/08/27 12:10:54;;;;;;;;;;;;;;;21.48;54.64;100461.34;5022179;28;5268;-75
2023/08/27 12:13:21;;;;;;;;;;;;;;;21.60;56.21;100443.75;5038355;28;4228;-72
2023/08/27 12:15:47;;;;;;;;;;;;;;;21.62;55.87;100435.91;5035140;28;4822;-71
2023/08/27 12:18:13;;;;;;;;;;;;;;;21.54;54.72;100424.13;5024186;28;3972;-73
2023/08/27 12:20:40;;;;;;;;;;;;;;;21.72;54.84;100429.78;5025395;28;4027;-72
2023/08/27 12:23:10;;;;;;;;;;;;;;;21.69;54.77;100446.28;5023456;28;4149;-73
2023/08/27 12:25:49;;;;;;;;;;;;;;;21.83;53.33;100451.03;5027619;28;4161;-78
2023/08/27 12:28:16;;;;;;;;;;;;;;;21.61;53.88;100456.78;5025938;28;4014;-72
2023/08/27 12:30:45;;;;;;;;;;;;;;;21.31;54.78;100457.13;5021839;28;4163;-72
2023/08/27 12:33:11;;;;;;;;;;;;;;;21.22;55.71;100458.25;5022126;28;3928;-72
2023/08/27 12:35:37;;;;;;;;;;;;;;;21.38;55.24;100455.94;5040537;28;4848;-72
2023/08/27 12:38:04;;;;;;;;;;;;;;;21.48;54.66;100444.06;5026696;28;4209;-73
2023/08/27 12:40:31;;;;;;;;;;;;;;;21.25;56.00;100433.88;5025120;28;4091;-72
2023/08/27 12:42:58;;;;;;;;;;;;;;;21.44;56.01;100432.41;5026541;28;4157;-73
2023/08/27 12:45:24;;;;;;;;;;;;;;;21.45;56.54;100425.25;5029731;28;4081;-73
2023/08/27 12:47:51;;;;;;;;;;;;;;;21.40;56.61;100420.72;5027358;28;4028;-72
2023/08/27 12:50:17;;;;;;;;;;;;;;;21.24;57.08;100433.13;5042557;28;4137;-77
2023/08/27 12:52:43;;;;;;;;;;;;;;;21.30;57.01;100424.72;5041248;28;4041;-80